sensor_id;sensor_type;location;lat;lon;timestamp;P1;durP1;ratioP1;P2;durP2;ratioP2
5923;SDS011;2987;50.884;14.818;2023-03-01T15:16:24;34.23;;;18.93;;
5923;SDS011;2987;50.884;14.818;2023-03-01T15:18:54;34.40;;;20.20;;
5923;SDS011;2987;50.884;14.818;2023-03-01T15:21:24;37.20;;;21.07;;
5923;SDS011;2987;50.884;14.818;2023-03-01T15:23:57;40.27;;;21.80;;
5923;SDS011;2987;50.884;14.818;2023-03-01T15:26:55;43.47;;;23.17;;
5923;SDS011;2987;50.884;14.818;2023-03-01T15:29:28;34.50;;;20.00;;
5923;SDS011;2987;50.884;14.818;2023-03-01T15:32:00;37.93;;;20.97;;
5923;SDS011;2987;50.884;14.818;2023-03-01T15:34:32;36.33;;;20.80;;
5923;SDS011;2987;50.884;14.818;2023-03-01T15:37:03;36.53;;;22.27;;
5923;SDS011;2987;50.884;14.818;2023-03-01T15:39:39;40.37;;;21.73;;
5923;SDS011;2987;50.884;14.818;2023-03-01T15:42:10;35.70;;;22.00;;
5923;SDS011;2987;50.884;14.818;2023-03-01T15:47:50;40.83;;;22.97;;
5923;SDS011;2987;50.884;14.818;2023-03-01T15:50:22;36.80;;;23.63;;
5923;SDS011;2987;50.884;14.818;2023-03-01T15:55:19;43.60;;;23.80;;
5923;SDS011;2987;50.884;14.818;2023-03-01T15:57:48;40.10;;;24.30;;
5923;SDS011;2987;50.884;14.818;2023-03-01T16:02:43;42.80;;;25.13;;
5923;SDS011;2987;50.884;14.818;2023-03-01T16:05:15;39.57;;;25.27;;
5923;SDS011;2987;50.884;14.818;2023-03-01T16:07:46;45.50;;;24.67;;
5923;SDS011;2987;50.884;14.818;2023-03-01T16:10:12;37.57;;;22.33;;
5923;SDS011;2987;50.884;14.818;2023-03-01T16:12:39;37.70;;;22.50;;
5923;SDS011;2987;50.884;14.818;2023-03-01T16:15:11;35.47;;;21.70;;
5923;SDS011;2987;50.884;14.818;2023-03-01T16:17:42;38.73;;;22.23;;
5923;SDS011;2987;50.884;14.818;2023-03-01T16:20:08;36.33;;;22.63;;
5923;SDS011;2987;50.884;14.818;2023-03-01T16:22:35;37.10;;;22.40;;
5923;SDS011;2987;50.884;14.818;2023-03-01T16:25:01;42.50;;;21.43;;
5923;SDS011;2987;50.884;14.818;2023-03-01T16:27:28;33.70;;;20.47;;
5923;SDS011;2987;50.884;14.818;2023-03-01T16:29:54;33.10;;;21.23;;
5923;SDS011;2987;50.884;14.818;2023-03-01T16:32:20;35.50;;;20.97;;
5923;SDS011;2987;50.884;14.818;2023-03-01T16:34:46;29.83;;;19.67;;
5923;SDS011;2987;50.884;14.818;2023-03-01T16:37:15;37.07;;;20.00;;
5923;SDS011;2987;50.884;14.818;2023-03-01T16:39:41;34.67;;;20.27;;
5923;SDS011;2987;50.884;14.818;2023-03-01T16:42:07;32.33;;;20.47;;
5923;SDS011;2987;50.884;14.818;2023-03-01T16:44:33;30.17;;;19.43;;
5923;SDS011;2987;50.884;14.818;2023-03-01T16:46:59;33.17;;;19.67;;
5923;SDS011;2987;50.884;14.818;2023-03-01T16:49:25;32.53;;;20.60;;
5923;SDS011;2987;50.884;14.818;2023-03-01T16:51:53;33.50;;;20.23;;
5923;SDS011;2987;50.884;14.818;2023-03-01T16:54:19;33.67;;;20.20;;
5923;SDS011;2987;50.884;14.818;2023-03-01T16:56:45;29.47;;;18.73;;
5923;SDS011;2987;50.884;14.818;2023-03-01T16:59:11;34.20;;;20.07;;
5923;SDS011;2987;50.884;14.818;2023-03-01T17:01:37;31.43;;;19.43;;
5923;SDS011;2987;50.884;14.818;2023-03-01T17:04:06;32.53;;;19.77;;
5923;SDS011;2987;50.884;14.818;2023-03-01T17:06:36;30.43;;;18.60;;
5923;SDS011;2987;50.884;14.818;2023-03-01T17:09:02;32.57;;;19.67;;
5923;SDS011;2987;50.884;14.818;2023-03-01T17:11:29;33.73;;;18.57;;
5923;SDS011;2987;50.884;14.818;2023-03-01T17:13:55;31.97;;;17.67;;
5923;SDS011;2987;50.884;14.818;2023-03-01T17:16:21;29.70;;;18.33;;
5923;SDS011;2987;50.884;14.818;2023-03-01T17:18:47;30.67;;;18.43;;
5923;SDS011;2987;50.884;14.818;2023-03-01T17:21:14;32.47;;;18.47;;
5923;SDS011;2987;50.884;14.818;2023-03-01T17:23:41;34.20;;;19.77;;
5923;SDS011;2987;50.884;14.818;2023-03-01T17:26:09;36.03;;;19.57;;
5923;SDS011;2987;50.884;14.818;2023-03-01T17:28:36;31.93;;;18.90;;
5923;SDS011;2987;50.884;14.818;2023-03-01T17:31:03;36.87;;;19.27;;
5923;SDS011;2987;50.884;14.818;2023-03-01T17:33:30;30.20;;;18.20;;
5923;SDS011;2987;50.884;14.818;2023-03-01T17:35:57;34.27;;;20.10;;
5923;SDS011;2987;50.884;14.818;2023-03-01T17:38:24;35.80;;;20.57;;
5923;SDS011;2987;50.884;14.818;2023-03-01T17:40:50;32.50;;;18.73;;
5923;SDS011;2987;50.884;14.818;2023-03-01T17:43:17;40.83;;;20.53;;
5923;SDS011;2987;50.884;14.818;2023-03-01T17:45:43;42.43;;;20.63;;
5923;SDS011;2987;50.884;14.818;2023-03-01T17:48:13;47.43;;;23.73;;
5923;SDS011;2987;50.884;14.818;2023-03-01T17:50:41;38.20;;;22.07;;
5923;SDS011;2987;50.884;14.818;2023-03-01T17:53:07;37.33;;;21.63;;
5923;SDS011;2987;50.884;14.818;2023-03-01T17:55:35;38.37;;;20.60;;
5923;SDS011;2987;50.884;14.818;2023-03-01T17:58:02;40.60;;;22.30;;
5923;SDS011;2987;50.884;14.818;2023-03-01T18:00:30;34.80;;;21.33;;
5923;SDS011;2987;50.884;14.818;2023-03-01T18:02:56;37.80;;;21.93;;
5923;SDS011;2987;50.884;14.818;2023-03-01T18:05:23;35.17;;;21.30;;
5923;SDS011;2987;50.884;14.818;2023-03-01T18:07:50;38.80;;;21.87;;
5923;SDS011;2987;50.884;14.818;2023-03-01T18:10:18;43.80;;;23.83;;
5923;SDS011;2987;50.884;14.818;2023-03-01T18:12:45;42.10;;;25.03;;
5923;SDS011;2987;50.884;14.818;2023-03-01T18:15:11;43.87;;;24.87;;
5923;SDS011;2987;50.884;14.818;2023-03-01T18:17:37;45.57;;;27.63;;
5923;SDS011;2987;50.884;14.818;2023-03-01T18:20:04;51.03;;;28.10;;
5923;SDS011;2987;50.884;14.818;2023-03-01T18:22:31;45.97;;;25.10;;
5923;SDS011;2987;50.884;14.818;2023-03-01T18:24:58;45.73;;;25.50;;
5923;SDS011;2987;50.884;14.818;2023-03-01T18:27:24;42.43;;;24.67;;
5923;SDS011;2987;50.884;14.818;2023-03-01T18:29:51;43.07;;;24.73;;
5923;SDS011;2987;50.884;14.818;2023-03-01T18:32:18;39.80;;;24.20;;
5923;SDS011;2987;50.884;14.818;2023-03-01T18:34:44;39.47;;;23.93;;
5923;SDS011;2987;50.884;14.818;2023-03-01T18:37:10;46.17;;;24.47;;
5923;SDS011;2987;50.884;14.818;2023-03-01T18:39:36;43.70;;;24.33;;
5923;SDS011;2987;50.884;14.818;2023-03-01T18:42:02;49.53;;;26.70;;
5923;SDS011;2987;50.884;14.818;2023-03-01T18:44:29;41.07;;;24.37;;
5923;SDS011;2987;50.884;14.818;2023-03-01T18:46:55;48.87;;;25.60;;
5923;SDS011;2987;50.884;14.818;2023-03-01T18:49:23;51.73;;;28.43;;
5923;SDS011;2987;50.884;14.818;2023-03-01T18:51:51;53.20;;;30.50;;
5923;SDS011;2987;50.884;14.818;2023-03-01T18:54:17;53.20;;;27.80;;
5923;SDS011;2987;50.884;14.818;2023-03-01T18:56:44;51.03;;;27.73;;
5923;SDS011;2987;50.884;14.818;2023-03-01T18:59:10;41.97;;;24.13;;
5923;SDS011;2987;50.884;14.818;2023-03-01T19:01:37;50.23;;;23.87;;
5923;SDS011;2987;50.884;14.818;2023-03-01T19:04:03;43.20;;;23.90;;
5923;SDS011;2987;50.884;14.818;2023-03-01T19:06:31;45.50;;;23.97;;
5923;SDS011;2987;50.884;14.818;2023-03-01T19:08:59;42.03;;;25.00;;
5923;SDS011;2987;50.884;14.818;2023-03-01T19:11:25;44.63;;;25.47;;
5923;SDS011;2987;50.884;14.818;2023-03-01T19:13:55;44.20;;;24.63;;
5923;SDS011;2987;50.884;14.818;2023-03-01T19:16:22;44.93;;;24.93;;
5923;SDS011;2987;50.884;14.818;2023-03-01T19:18:53;48.83;;;26.43;;
5923;SDS011;2987;50.884;14.818;2023-03-01T19:21:24;40.17;;;24.23;;
5923;SDS011;2987;50.884;14.818;2023-03-01T19:23:52;41.60;;;25.20;;
5923;SDS011;2987;50.884;14.818;2023-03-01T19:26:21;48.43;;;26.50;;
5923;SDS011;2987;50.884;14.818;2023-03-01T19:28:49;46.53;;;26.33;;
5923;SDS011;2987;50.884;14.818;2023-03-01T19:31:18;48.70;;;26.60;;
5923;SDS011;2987;50.884;14.818;2023-03-01T19:33:48;47.63;;;25.80;;
5923;SDS011;2987;50.884;14.818;2023-03-01T19:36:15;51.53;;;25.63;;
5923;SDS011;2987;50.884;14.818;2023-03-01T19:38:43;46.90;;;26.33;;
5923;SDS011;2987;50.884;14.818;2023-03-01T19:41:11;41.83;;;23.80;;
5923;SDS011;2987;50.884;14.818;2023-03-01T19:43:39;40.77;;;22.33;;
5923;SDS011;2987;50.884;14.818;2023-03-01T19:46:08;39.00;;;22.00;;
5923;SDS011;2987;50.884;14.818;2023-03-01T19:48:35;47.43;;;25.07;;
5923;SDS011;2987;50.884;14.818;2023-03-01T19:51:04;43.43;;;24.33;;
5923;SDS011;2987;50.884;14.818;2023-03-01T19:53:32;52.27;;;27.27;;
5923;SDS011;2987;50.884;14.818;2023-03-01T19:55:59;51.93;;;26.60;;
5923;SDS011;2987;50.884;14.818;2023-03-01T19:58:27;62.30;;;30.40;;
5923;SDS011;2987;50.884;14.818;2023-03-01T20:00:55;61.77;;;29.77;;
5923;SDS011;2987;50.884;14.818;2023-03-01T20:03:26;51.37;;;27.70;;
5923;SDS011;2987;50.884;14.818;2023-03-01T20:05:54;50.03;;;26.00;;
5923;SDS011;2987;50.884;14.818;2023-03-01T20:08:21;48.10;;;25.10;;
5923;SDS011;2987;50.884;14.818;2023-03-01T20:10:48;47.77;;;25.13;;
5923;SDS011;2987;50.884;14.818;2023-03-01T20:13:14;51.33;;;25.67;;
5923;SDS011;2987;50.884;14.818;2023-03-01T20:15:41;42.10;;;25.83;;
5923;SDS011;2987;50.884;14.818;2023-03-01T20:18:09;40.23;;;23.80;;
5923;SDS011;2987;50.884;14.818;2023-03-01T20:20:35;40.17;;;24.37;;
5923;SDS011;2987;50.884;14.818;2023-03-01T20:23:02;38.53;;;23.27;;
5923;SDS011;2987;50.884;14.818;2023-03-01T20:25:29;42.00;;;23.93;;
5923;SDS011;2987;50.884;14.818;2023-03-01T20:27:55;38.57;;;22.27;;
5923;SDS011;2987;50.884;14.818;2023-03-01T20:30:21;45.63;;;24.37;;
5923;SDS011;2987;50.884;14.818;2023-03-01T20:32:47;42.27;;;22.10;;
5923;SDS011;2987;50.884;14.818;2023-03-01T20:35:13;38.07;;;22.33;;
5923;SDS011;2987;50.884;14.818;2023-03-01T20:37:39;40.10;;;23.23;;
5923;SDS011;2987;50.884;14.818;2023-03-01T20:40:06;35.33;;;21.13;;
5923;SDS011;2987;50.884;14.818;2023-03-01T20:42:34;41.93;;;23.33;;
5923;SDS011;2987;50.884;14.818;2023-03-01T20:45:00;36.73;;;21.47;;
5923;SDS011;2987;50.884;14.818;2023-03-01T20:47:26;38.07;;;22.27;;
5923;SDS011;2987;50.884;14.818;2023-03-01T20:49:52;39.70;;;22.57;;
5923;SDS011;2987;50.884;14.818;2023-03-01T20:52:18;39.60;;;21.47;;
5923;SDS011;2987;50.884;14.818;2023-03-01T20:54:44;39.97;;;22.97;;
5923;SDS011;2987;50.884;14.818;2023-03-01T20:57:10;38.13;;;21.83;;
5923;SDS011;2987;50.884;14.818;2023-03-01T20:59:36;40.20;;;23.20;;
5923;SDS011;2987;50.884;14.818;2023-03-01T21:02:02;47.97;;;23.73;;
5923;SDS011;2987;50.884;14.818;2023-03-01T21:04:28;46.57;;;24.27;;
5923;SDS011;2987;50.884;14.818;2023-03-01T21:06:54;51.87;;;26.53;;
5923;SDS011;2987;50.884;14.818;2023-03-01T21:09:21;59.37;;;28.77;;
5923;SDS011;2987;50.884;14.818;2023-03-01T21:11:48;52.90;;;27.60;;
5923;SDS011;2987;50.884;14.818;2023-03-01T21:14:15;55.07;;;27.50;;
5923;SDS011;2987;50.884;14.818;2023-03-01T21:16:41;51.63;;;27.90;;
5923;SDS011;2987;50.884;14.818;2023-03-01T21:19:10;51.60;;;26.53;;
5923;SDS011;2987;50.884;14.818;2023-03-01T21:21:36;52.47;;;28.73;;
5923;SDS011;2987;50.884;14.818;2023-03-01T21:24:02;55.07;;;29.00;;
5923;SDS011;2987;50.884;14.818;2023-03-01T21:26:29;56.30;;;28.20;;
5923;SDS011;2987;50.884;14.818;2023-03-01T21:28:56;52.67;;;26.93;;
5923;SDS011;2987;50.884;14.818;2023-03-01T21:31:24;44.43;;;25.87;;
5923;SDS011;2987;50.884;14.818;2023-03-01T21:33:54;44.63;;;24.77;;
5923;SDS011;2987;50.884;14.818;2023-03-01T21:36:22;43.73;;;24.03;;
5923;SDS011;2987;50.884;14.818;2023-03-01T21:38:49;47.00;;;25.93;;
5923;SDS011;2987;50.884;14.818;2023-03-01T21:41:18;46.27;;;24.57;;
5923;SDS011;2987;50.884;14.818;2023-03-01T21:43:46;45.93;;;25.77;;
5923;SDS011;2987;50.884;14.818;2023-03-01T21:46:14;44.87;;;25.43;;
5923;SDS011;2987;50.884;14.818;2023-03-01T21:48:43;47.57;;;24.87;;
5923;SDS011;2987;50.884;14.818;2023-03-01T21:51:10;45.57;;;25.13;;
5923;SDS011;2987;50.884;14.818;2023-03-01T21:53:38;46.40;;;25.87;;
5923;SDS011;2987;50.884;14.818;2023-03-01T21:56:04;50.90;;;25.83;;
5923;SDS011;2987;50.884;14.818;2023-03-01T21:58:30;42.70;;;24.03;;
5923;SDS011;2987;50.884;14.818;2023-03-01T22:01:04;44.90;;;24.17;;
5923;SDS011;2987;50.884;14.818;2023-03-01T22:03:32;43.37;;;23.60;;
5923;SDS011;2987;50.884;14.818;2023-03-01T22:05:59;44.20;;;23.47;;
5923;SDS011;2987;50.884;14.818;2023-03-01T22:08:26;40.77;;;23.50;;
5923;SDS011;2987;50.884;14.818;2023-03-01T22:10:54;43.17;;;23.67;;
5923;SDS011;2987;50.884;14.818;2023-03-01T22:13:20;45.53;;;25.13;;
5923;SDS011;2987;50.884;14.818;2023-03-01T22:15:46;41.20;;;22.77;;
5923;SDS011;2987;50.884;14.818;2023-03-01T22:18:12;44.30;;;25.20;;
5923;SDS011;2987;50.884;14.818;2023-03-01T22:20:39;46.63;;;25.90;;
5923;SDS011;2987;50.884;14.818;2023-03-01T22:23:07;49.43;;;26.30;;
5923;SDS011;2987;50.884;14.818;2023-03-01T22:25:38;45.47;;;26.53;;
5923;SDS011;2987;50.884;14.818;2023-03-01T22:28:07;61.23;;;31.27;;
5923;SDS011;2987;50.884;14.818;2023-03-01T22:30:33;57.60;;;29.53;;
5923;SDS011;2987;50.884;14.818;2023-03-01T22:33:00;63.43;;;30.70;;
5923;SDS011;2987;50.884;14.818;2023-03-01T22:35:26;63.33;;;32.00;;
5923;SDS011;2987;50.884;14.818;2023-03-01T22:37:52;58.57;;;31.20;;
5923;SDS011;2987;50.884;14.818;2023-03-01T22:40:18;61.07;;;32.37;;
5923;SDS011;2987;50.884;14.818;2023-03-01T22:42:44;65.60;;;33.43;;
5923;SDS011;2987;50.884;14.818;2023-03-01T22:45:10;66.63;;;33.30;;
5923;SDS011;2987;50.884;14.818;2023-03-01T22:47:36;70.00;;;34.83;;
5923;SDS011;2987;50.884;14.818;2023-03-01T22:50:03;64.67;;;33.50;;
5923;SDS011;2987;50.884;14.818;2023-03-01T22:52:31;69.57;;;33.73;;
5923;SDS011;2987;50.884;14.818;2023-03-01T22:54:57;67.23;;;33.87;;
5923;SDS011;2987;50.884;14.818;2023-03-01T22:57:23;65.13;;;33.93;;
5923;SDS011;2987;50.884;14.818;2023-03-01T22:59:49;71.57;;;36.93;;
5923;SDS011;2987;50.884;14.818;2023-03-01T23:02:15;75.07;;;37.83;;
5923;SDS011;2987;50.884;14.818;2023-03-01T23:04:41;69.17;;;35.17;;
5923;SDS011;2987;50.884;14.818;2023-03-01T23:07:08;68.60;;;36.17;;
5923;SDS011;2987;50.884;14.818;2023-03-01T23:09:34;71.17;;;37.23;;
5923;SDS011;2987;50.884;14.818;2023-03-01T23:12:01;69.23;;;36.87;;
5923;SDS011;2987;50.884;14.818;2023-03-01T23:14:31;75.77;;;38.10;;
5923;SDS011;2987;50.884;14.818;2023-03-01T23:17:01;75.17;;;37.67;;
5923;SDS011;2987;50.884;14.818;2023-03-01T23:19:27;77.47;;;37.00;;
5923;SDS011;2987;50.884;14.818;2023-03-01T23:21:53;72.60;;;35.47;;
5923;SDS011;2987;50.884;14.818;2023-03-01T23:24:22;77.60;;;38.00;;
5923;SDS011;2987;50.884;14.818;2023-03-01T23:26:56;67.67;;;35.33;;
5923;SDS011;2987;50.884;14.818;2023-03-01T23:29:24;73.10;;;36.63;;
5923;SDS011;2987;50.884;14.818;2023-03-01T23:31:50;71.27;;;34.83;;
5923;SDS011;2987;50.884;14.818;2023-03-01T23:34:19;72.83;;;36.27;;
5923;SDS011;2987;50.884;14.818;2023-03-01T23:36:45;73.80;;;37.43;;
5923;SDS011;2987;50.884;14.818;2023-03-01T23:39:12;70.03;;;36.30;;
5923;SDS011;2987;50.884;14.818;2023-03-01T23:41:38;68.00;;;34.63;;
5923;SDS011;2987;50.884;14.818;2023-03-01T23:44:05;73.43;;;36.87;;
5923;SDS011;2987;50.884;14.818;2023-03-01T23:46:32;78.53;;;37.90;;
5923;SDS011;2987;50.884;14.818;2023-03-01T23:48:59;73.33;;;36.07;;
5923;SDS011;2987;50.884;14.818;2023-03-01T23:51:26;70.83;;;34.30;;
5923;SDS011;2987;50.884;14.818;2023-03-01T23:53:53;65.37;;;35.10;;
5923;SDS011;2987;50.884;14.818;2023-03-01T23:56:23;71.13;;;34.57;;
5923;SDS011;2987;50.884;14.818;2023-03-01T23:58:52;67.50;;;34.63;;
